Time;durP1;ratioP1;P1;durP2;ratioP2;P2;SDS_P1;SDS_P2;PMS_P1;PMS_P2;Temp;Humidity;BMP_temperature;BMP_pressure;BME280_temperature;BME280_humidity;BME280_pressure;Samples;Min_cycle;Max_cycle;Signal;HPM_P1;HPM_P2
2023/05/07 00:03:56;;;;;;;13.32;11.93;;;;;;;;;;10436860;28;20499;-86
2023/05/07 00:09:00;;;;;;;14.73;12.68;;;;;;;;;;10440047;28;20429;-85
2023/05/07 00:14:02;;;;;;;14.93;13.23;;;;;;;;;;10439795;28;20441;-87
2023/05/07 00:19:04;;;;;;;15.23;13.10;;;;;;;;;;10435886;28;20419;-87
2023/05/07 00:24:08;;;;;;;13.20;11.77;;;;;;;;;;10439300;28;20794;-87
2023/05/07 00:29:09;;;;;;;13.63;12.20;;;;;;;;;;10440264;28;20773;-88
2023/05/07 00:34:11;;;;;;;13.53;12.13;;;;;;;;;;10437996;28;20402;-85
2023/05/07 00:39:14;;;;;;;14.03;12.10;;;;;;;;;;10440984;28;20431;-87
2023/05/07 00:44:16;;;;;;;13.57;12.10;;;;;;;;;;10438608;28;20412;-85
2023/05/07 00:49:19;;;;;;;12.30;10.88;;;;;;;;;;10438672;28;20411;-85
2023/05/07 00:54:22;;;;;;;11.88;10.68;;;;;;;;;;10435614;28;20769;-87
2023/05/07 00:59:25;;;;;;;13.05;11.15;;;;;;;;;;10439390;28;20428;-87
2023/05/07 01:04:27;;;;;;;13.27;11.10;;;;;;;;;;10438771;28;20509;-87
2023/05/07 01:09:30;;;;;;;12.33;11.03;;;;;;;;;;10435221;28;20897;-86
2023/05/07 01:14:33;;;;;;;12.85;11.02;;;;;;;;;;10438062;28;20744;-85
2023/05/07 01:19:36;;;;;;;12.60;11.23;;;;;;;;;;10450112;28;20450;-87
2023/05/07 01:24:39;;;;;;;14.37;12.03;;;;;;;;;;10458025;28;21201;-86
2023/05/07 01:29:41;;;;;;;14.27;12.15;;;;;;;;;;10434468;28;20777;-85
2023/05/07 01:34:44;;;;;;;15.65;11.95;;;;;;;;;;10434668;28;21202;-88
2023/05/07 01:39:49;;;;;;;13.88;12.38;;;;;;;;;;10424982;28;20520;-88
2023/05/07 01:44:51;;;;;;;15.30;11.93;;;;;;;;;;10428491;28;20577;-86
2023/05/07 01:49:53;;;;;;;14.13;11.75;;;;;;;;;;10433235;28;20422;-86
2023/05/07 01:54:56;;;;;;;14.25;12.10;;;;;;;;;;10433219;28;20766;-87
2023/05/07 01:59:58;;;;;;;13.70;12.15;;;;;;;;;;10435312;28;20436;-88
2023/05/07 02:05:02;;;;;;;13.63;12.13;;;;;;;;;;10424674;28;21522;-88
2023/05/07 02:10:06;;;;;;;14.50;12.27;;;;;;;;;;10429558;28;20500;-88
2023/05/07 02:15:08;;;;;;;14.23;11.83;;;;;;;;;;10427277;28;20407;-88
2023/05/07 02:20:13;;;;;;;16.33;11.47;;;;;;;;;;10434144;28;20841;-88
2023/05/07 02:25:16;;;;;;;16.52;11.65;;;;;;;;;;10427404;28;20414;-88
2023/05/07 02:30:19;;;;;;;12.93;11.38;;;;;;;;;;10428882;28;20786;-87
2023/05/07 02:35:21;;;;;;;12.57;11.27;;;;;;;;;;10430722;28;20488;-87
2023/05/07 02:40:24;;;;;;;13.13;11.18;;;;;;;;;;10435353;28;20431;-88
2023/05/07 02:45:26;;;;;;;12.70;11.38;;;;;;;;;;10431496;28;20429;-87
2023/05/07 02:50:28;;;;;;;14.20;11.52;;;;;;;;;;10433728;28;20414;-87
2023/05/07 02:55:32;;;;;;;14.07;11.70;;;;;;;;;;10432829;28;20415;-87
2023/05/07 03:00:34;;;;;;;12.88;11.13;;;;;;;;;;10430348;28;20426;-87
2023/05/07 03:05:36;;;;;;;13.73;11.48;;;;;;;;;;10435336;28;20498;-86
2023/05/07 03:10:39;;;;;;;14.10;11.13;;;;;;;;;;10429841;28;20439;-86
2023/05/07 03:15:41;;;;;;;11.85;10.65;;;;;;;;;;10431081;28;20409;-86
2023/05/07 03:20:43;;;;;;;12.90;11.30;;;;;;;;;;10431807;28;20429;-86
2023/05/07 03:25:46;;;;;;;12.57;10.97;;;;;;;;;;10428569;28;20409;-86
2023/05/07 03:30:48;;;;;;;14.15;10.45;;;;;;;;;;10432256;28;20428;-86
2023/05/07 03:35:50;;;;;;;11.70;10.50;;;;;;;;;;10431891;28;20411;-86
2023/05/07 03:40:53;;;;;;;12.60;11.00;;;;;;;;;;10431356;28;20421;-86
2023/05/07 03:45:55;;;;;;;13.68;11.32;;;;;;;;;;10427851;28;20405;-86
2023/05/07 03:50:58;;;;;;;11.70;10.13;;;;;;;;;;10433954;28;20433;-85
2023/05/07 03:56:01;;;;;;;12.23;10.40;;;;;;;;;;10428028;28;20750;-86
2023/05/07 04:01:03;;;;;;;11.75;10.07;;;;;;;;;;10431351;28;20526;-87
2023/05/07 04:06:05;;;;;;;12.63;10.87;;;;;;;;;;10427631;28;20473;-87
2023/05/07 04:11:08;;;;;;;12.27;10.38;;;;;;;;;;10429566;28;20438;-85
2023/05/07 04:16:10;;;;;;;12.90;10.02;;;;;;;;;;10427389;28;20444;-86
2023/05/07 04:21:15;;;;;;;11.38;9.90;;;;;;;;;;10427592;28;20817;-87
2023/05/07 04:26:19;;;;;;;11.60;9.60;;;;;;;;;;10426696;28;20495;-86
2023/05/07 04:31:20;;;;;;;10.93;9.80;;;;;;;;;;10429299;28;20407;-86
2023/05/07 04:36:22;;;;;;;12.27;9.53;;;;;;;;;;10424825;28;20480;-86
2023/05/07 04:41:26;;;;;;;13.85;9.63;;;;;;;;;;10431673;28;20423;-87
2023/05/07 04:46:28;;;;;;;11.02;9.93;;;;;;;;;;10429679;28;20925;-86
2023/05/07 04:51:32;;;;;;;12.32;9.60;;;;;;;;;;10435802;28;20413;-87
2023/05/07 04:56:35;;;;;;;12.13;9.87;;;;;;;;;;10427426;28;20887;-87
2023/05/07 05:01:37;;;;;;;11.63;9.40;;;;;;;;;;10429202;28;20848;-86
2023/05/07 05:06:39;;;;;;;11.90;9.65;;;;;;;;;;10430549;28;20424;-86
2023/05/07 05:11:43;;;;;;;12.20;10.23;;;;;;;;;;10427390;28;20492;-86
2023/05/07 05:16:44;;;;;;;13.13;10.85;;;;;;;;;;10426978;28;20441;-87
2023/05/07 05:21:46;;;;;;;12.30;11.05;;;;;;;;;;10425371;28;20423;-87
2023/05/07 05:26:49;;;;;;;14.30;11.07;;;;;;;;;;10429229;28;20441;-87
2023/05/07 05:31:51;;;;;;;13.07;11.05;;;;;;;;;;10431825;28;20404;-86
2023/05/07 05:36:53;;;;;;;12.75;10.10;;;;;;;;;;10437337;28;20407;-86
2023/05/07 05:41:56;;;;;;;10.23;8.50;;;;;;;;;;10434381;28;20432;-86
2023/05/07 05:46:59;;;;;;;9.53;8.50;;;;;;;;;;10435254;28;20991;-87
2023/05/07 05:52:00;;;;;;;10.23;9.17;;;;;;;;;;10446398;28;20419;-89
2023/05/07 05:57:05;;;;;;;10.93;8.93;;;;;;;;;;10445864;28;20492;-87
2023/05/07 06:02:07;;;;;;;10.52;9.25;;;;;;;;;;10431448;28;20404;-86
2023/05/07 06:07:09;;;;;;;13.00;9.60;;;;;;;;;;10434557;28;20408;-87
2023/05/07 06:12:12;;;;;;;10.13;8.98;;;;;;;;;;10432690;28;20407;-87
2023/05/07 06:17:14;;;;;;;9.77;8.83;;;;;;;;;;10431606;28;20412;-87
2023/05/07 06:22:16;;;;;;;10.83;8.37;;;;;;;;;;10431059;28;20781;-86
2023/05/07 06:27:19;;;;;;;10.10;8.97;;;;;;;;;;10432963;28;20422;-87
2023/05/07 06:32:20;;;;;;;10.77;9.52;;;;;;;;;;10431311;28;20464;-86
2023/05/07 06:37:22;;;;;;;10.07;8.63;;;;;;;;;;10436550;28;20422;-86
2023/05/07 06:42:26;;;;;;;10.23;8.20;;;;;;;;;;10431647;28;20412;-87
2023/05/07 06:47:28;;;;;;;9.75;8.40;;;;;;;;;;10435674;28;20832;-87
2023/05/07 06:52:30;;;;;;;11.25;8.63;;;;;;;;;;10433080;28;20423;-87
2023/05/07 06:57:33;;;;;;;9.02;8.13;;;;;;;;;;10414296;28;20418;-86
2023/05/07 07:02:35;;;;;;;11.98;7.88;;;;;;;;;;10429027;28;20423;-86
2023/05/07 07:07:37;;;;;;;7.68;6.85;;;;;;;;;;10444904;28;20762;-87
2023/05/07 07:12:40;;;;;;;8.15;7.00;;;;;;;;;;10430703;28;20434;-87
2023/05/07 07:17:42;;;;;;;7.70;6.70;;;;;;;;;;10428268;28;20428;-87
2023/05/07 07:22:44;;;;;;;6.60;5.93;;;;;;;;;;10443184;28;20837;-87
2023/05/07 07:27:47;;;;;;;7.30;6.20;;;;;;;;;;10428722;28;20451;-87
2023/05/07 07:32:49;;;;;;;9.50;6.03;;;;;;;;;;10433622;28;20415;-86
2023/05/07 07:37:51;;;;;;;6.50;5.90;;;;;;;;;;10429651;28;20423;-87
2023/05/07 07:42:54;;;;;;;7.10;6.40;;;;;;;;;;10427326;28;20469;-87
2023/05/07 07:47:56;;;;;;;8.00;6.60;;;;;;;;;;10445790;28;20414;-86
2023/05/07 07:52:58;;;;;;;7.23;6.50;;;;;;;;;;10444251;28;20405;-86
2023/05/07 07:58:01;;;;;;;7.80;7.00;;;;;;;;;;10458326;28;20441;-86
2023/05/07 08:03:03;;;;;;;6.60;6.00;;;;;;;;;;10423660;28;20421;-88
2023/05/07 08:08:05;;;;;;;6.93;6.20;;;;;;;;;;10435684;28;20415;-85
2023/05/07 08:13:08;;;;;;;5.57;4.30;;;;;;;;;;10468474;28;20494;-85
2023/05/07 08:18:10;;;;;;;5.60;4.57;;;;;;;;;;10471117;28;20544;-85
2023/05/07 08:23:12;;;;;;;5.67;4.77;;;;;;;;;;10468298;28;20410;-85
2023/05/07 08:28:15;;;;;;;6.03;4.90;;;;;;;;;;10471028;28;20465;-85
2023/05/07 08:33:17;;;;;;;5.72;4.95;;;;;;;;;;10470930;28;20485;-87
2023/05/07 08:38:19;;;;;;;5.18;4.68;;;;;;;;;;10436408;28;20425;-86
2023/05/07 08:43:23;;;;;;;7.68;5.03;;;;;;;;;;10426951;28;20421;-87
2023/05/07 08:48:26;;;;;;;5.32;4.70;;;;;;;;;;10431282;28;20404;-87
2023/05/07 08:53:28;;;;;;;6.72;5.22;;;;;;;;;;10433196;28;20821;-87
2023/05/07 08:58:31;;;;;;;6.50;4.68;;;;;;;;;;10430674;28;20787;-87
2023/05/07 09:03:33;;;;;;;4.80;4.40;;;;;;;;;;10421854;28;20487;-89
2023/05/07 09:08:36;;;;;;;6.87;4.80;;;;;;;;;;10431903;28;20889;-87
2023/05/07 09:13:39;;;;;;;5.45;4.95;;;;;;;;;;10435356;28;20776;-87
2023/05/07 09:18:44;;;;;;;6.60;4.65;;;;;;;;;;10453282;28;20422;-86
2023/05/07 09:23:46;;;;;;;5.47;4.32;;;;;;;;;;10428575;28;20410;-86
2023/05/07 09:28:50;;;;;;;5.20;4.70;;;;;;;;;;10431603;28;20411;-86
2023/05/07 09:33:55;;;;;;;6.97;4.70;;;;;;;;;;10436635;28;20416;-87
2023/05/07 09:39:00;;;;;;;4.82;4.30;;;;;;;;;;10432876;28;20436;-87
2023/05/07 09:44:03;;;;;;;5.28;4.78;;;;;;;;;;10435259;28;20403;-87
2023/05/07 09:49:09;;;;;;;5.77;4.30;;;;;;;;;;10437305;28;20990;-86
2023/05/07 09:54:11;;;;;;;5.27;4.30;;;;;;;;;;10413389;28;20409;-86
2023/05/07 09:59:17;;;;;;;5.53;5.03;;;;;;;;;;10414078;28;20432;-87
2023/05/07 10:04:20;;;;;;;5.68;5.18;;;;;;;;;;10428800;28;20888;-86
2023/05/07 10:09:23;;;;;;;5.93;4.80;;;;;;;;;;10429271;28;20417;-86
2023/05/07 10:14:29;;;;;;;6.23;5.13;;;;;;;;;;10433322;28;20423;-86
2023/05/07 10:19:33;;;;;;;7.00;5.22;;;;;;;;;;10436977;28;20850;-86
2023/05/07 10:24:37;;;;;;;5.90;5.05;;;;;;;;;;10433320;28;20406;-86
2023/05/07 10:29:59;;;;;;;5.95;5.30;;;;;;;;;;10433468;28;20456;-86
2023/05/07 10:35:03;;;;;;;5.23;4.73;;;;;;;;;;10437459;28;20768;-86
2023/05/07 10:40:07;;;;;;;4.97;4.45;;;;;;;;;;10433111;28;20421;-86
2023/05/07 10:45:16;;;;;;;5.90;4.50;;;;;;;;;;10433004;28;20407;-86
2023/05/07 10:50:22;;;;;;;4.85;4.38;;;;;;;;;;10436833;28;20408;-86
2023/05/07 10:55:25;;;;;;;5.10;4.60;;;;;;;;;;10432761;28;20929;-86
2023/05/07 11:00:58;;;;;;;4.90;4.45;;;;;;;;;;10428431;28;20425;-85
2023/05/07 11:06:14;;;;;;;5.63;4.90;;;;;;;;;;10441453;28;20473;-86
2023/05/07 11:11:17;;;;;;;5.80;4.90;;;;;;;;;;10428314;28;20425;-83
2023/05/07 11:16:22;;;;;;;6.15;5.50;;;;;;;;;;10429358;28;20420;-83
2023/05/07 11:21:33;;;;;;;5.80;4.88;;;;;;;;;;10424643;28;20435;-83
2023/05/07 11:26:49;;;;;;;5.85;5.28;;;;;;;;;;10414772;28;20823;-85
2023/05/07 11:31:54;;;;;;;5.47;4.97;;;;;;;;;;10380419;28;20407;-85
2023/05/07 11:36:57;;;;;;;6.10;5.22;;;;;;;;;;10384500;28;20905;-84
2023/05/07 11:41:59;;;;;;;6.93;5.80;;;;;;;;;;10422559;28;20424;-85
2023/05/07 11:47:02;;;;;;;5.43;4.88;;;;;;;;;;10409274;28;20422;-85
2023/05/07 11:52:04;;;;;;;7.10;4.93;;;;;;;;;;10406952;28;20421;-84
2023/05/07 11:57:07;;;;;;;5.72;4.97;;;;;;;;;;10393413;28;20919;-83
2023/05/07 12:02:10;;;;;;;6.63;5.10;;;;;;;;;;10396278;28;20425;-84
2023/05/07 12:07:13;;;;;;;6.18;5.30;;;;;;;;;;10436451;28;20468;-83
2023/05/07 12:12:17;;;;;;;6.67;5.70;;;;;;;;;;10450217;28;20420;-85
2023/05/07 12:17:20;;;;;;;7.10;6.07;;;;;;;;;;10447233;28;20412;-85
2023/05/07 12:22:23;;;;;;;8.40;5.78;;;;;;;;;;10453883;28;20437;-84
2023/05/07 12:27:25;;;;;;;7.33;5.80;;;;;;;;;;10446826;28;20495;-85
2023/05/07 12:32:28;;;;;;;7.55;6.07;;;;;;;;;;10425087;28;20401;-85
2023/05/07 12:37:30;;;;;;;6.40;5.53;;;;;;;;;;10437659;28;20399;-86
2023/05/07 12:42:34;;;;;;;6.80;6.07;;;;;;;;;;10430164;28;20495;-85
2023/05/07 12:47:37;;;;;;;6.87;6.00;;;;;;;;;;10438763;28;20425;-85
2023/05/07 12:52:40;;;;;;;6.22;5.15;;;;;;;;;;10425053;28;20421;-85
2023/05/07 12:57:43;;;;;;;6.30;5.70;;;;;;;;;;10434463;28;20413;-85
2023/05/07 13:02:47;;;;;;;6.13;5.53;;;;;;;;;;10440569;28;20427;-85
2023/05/07 13:07:54;;;;;;;6.10;5.50;;;;;;;;;;10418727;28;20442;-86
2023/05/07 13:12:56;;;;;;;6.10;5.30;;;;;;;;;;10443782;28;20411;-86
2023/05/07 13:18:00;;;;;;;6.83;6.00;;;;;;;;;;10450414;28;20419;-85
2023/05/07 13:23:04;;;;;;;6.80;6.10;;;;;;;;;;10442162;28;20425;-85
2023/05/07 13:28:05;;;;;;;9.05;6.80;;;;;;;;;;10445272;28;20420;-85
2023/05/07 13:33:09;;;;;;;8.18;7.25;;;;;;;;;;10457820;28;20422;-85
2023/05/07 13:38:11;;;;;;;7.60;6.65;;;;;;;;;;10444849;28;20413;-85
2023/05/07 13:43:13;;;;;;;7.85;7.07;;;;;;;;;;10436539;28;20426;-85
2023/05/07 13:48:16;;;;;;;9.30;7.60;;;;;;;;;;10447891;28;20415;-86
2023/05/07 13:53:18;;;;;;;7.72;6.60;;;;;;;;;;10458720;28;20440;-84
2023/05/07 13:58:20;;;;;;;9.30;6.70;;;;;;;;;;10465239;28;20421;-84
2023/05/07 14:03:33;;;;;;;8.80;7.20;;;;;;;;;;10463515;28;20436;-86
2023/05/07 14:08:35;;;;;;;7.28;6.68;;;;;;;;;;10464968;28;20445;-86
2023/05/07 14:13:37;;;;;;;7.85;7.05;;;;;;;;;;10437817;28;20918;-86
2023/05/07 14:18:40;;;;;;;7.90;6.75;;;;;;;;;;10468934;28;20505;-86
2023/05/07 14:23:42;;;;;;;8.52;7.30;;;;;;;;;;10449925;28;20424;-86
2023/05/07 14:28:46;;;;;;;6.78;6.13;;;;;;;;;;10434494;28;21021;-85
2023/05/07 14:33:49;;;;;;;7.63;6.83;;;;;;;;;;10429640;28;20399;-85
2023/05/07 14:38:51;;;;;;;7.70;6.90;;;;;;;;;;10433711;28;20420;-85
2023/05/07 14:43:53;;;;;;;10.83;7.37;;;;;;;;;;10436001;28;20408;-85
2023/05/07 14:48:57;;;;;;;7.38;6.40;;;;;;;;;;10441720;28;20423;-86
2023/05/07 14:54:00;;;;;;;8.07;7.28;;;;;;;;;;10431973;28;20415;-88
2023/05/07 14:59:02;;;;;;;6.67;6.07;;;;;;;;;;10431615;28;20495;-85
2023/05/07 15:04:06;;;;;;;7.90;7.20;;;;;;;;;;10432145;28;20414;-85
2023/05/07 15:09:08;;;;;;;7.47;6.78;;;;;;;;;;10430854;28;20751;-86
2023/05/07 15:14:10;;;;;;;6.82;6.13;;;;;;;;;;10430377;28;20909;-87
2023/05/07 15:19:19;;;;;;;7.85;6.82;;;;;;;;;;10429351;28;20782;-86
2023/05/07 15:24:20;;;;;;;7.50;6.80;;;;;;;;;;10422945;28;20425;-86
2023/05/07 15:29:22;;;;;;;7.30;6.50;;;;;;;;;;10434175;28;20415;-86
2023/05/07 15:34:26;;;;;;;7.40;6.70;;;;;;;;;;10423572;28;20827;-87
2023/05/07 15:39:28;;;;;;;7.30;6.60;;;;;;;;;;10425572;28;20905;-86
2023/05/07 15:44:31;;;;;;;6.80;6.20;;;;;;;;;;10423322;28;20427;-86
2023/05/07 15:49:34;;;;;;;4.35;3.80;;;;;;;;;;10425379;28;20408;-86
2023/05/07 15:54:37;;;;;;;4.45;4.03;;;;;;;;;;10417799;28;20416;-85
2023/05/07 15:59:39;;;;;;;4.15;3.80;;;;;;;;;;10426173;28;20914;-86
2023/05/07 16:04:42;;;;;;;4.70;3.80;;;;;;;;;;10417205;28;20424;-87
2023/05/07 16:09:44;;;;;;;5.25;3.60;;;;;;;;;;10419505;28;21012;-86
2023/05/07 16:14:46;;;;;;;5.70;4.43;;;;;;;;;;10420957;28;20443;-86
2023/05/07 16:19:50;;;;;;;4.95;3.50;;;;;;;;;;10423933;28;20492;-85
2023/05/07 16:24:55;;;;;;;4.63;3.70;;;;;;;;;;10430497;28;20434;-85
2023/05/07 16:29:57;;;;;;;4.18;3.50;;;;;;;;;;10435168;28;20420;-86
2023/05/07 16:35:00;;;;;;;4.10;3.70;;;;;;;;;;10449922;28;20412;-86
2023/05/07 16:40:05;;;;;;;4.40;3.70;;;;;;;;;;10452987;28;20521;-86
2023/05/07 16:45:08;;;;;;;6.85;5.70;;;;;;;;;;10454926;28;20416;-86
2023/05/07 16:50:14;;;;;;;22.07;13.73;;;;;;;;;;10450386;28;20423;-86
2023/05/07 18:05:04;;;;;;;4.38;3.22;;;;;;;;;;12831218;23;2055542;-87
2023/05/07 18:10:07;;;;;;;3.30;3.00;;;;;;;;;;12780428;23;20384;-88
2023/05/07 18:15:09;;;;;;;3.50;3.20;;;;;;;;;;12777070;23;20388;-88
2023/05/07 18:20:13;;;;;;;5.00;3.50;;;;;;;;;;12779720;23;20384;-88
2023/05/07 18:25:16;;;;;;;4.32;3.53;;;;;;;;;;12779945;23;20388;-86
2023/05/07 18:30:18;;;;;;;4.80;3.40;;;;;;;;;;12777675;23;20477;-87
2023/05/07 18:35:22;;;;;;;3.50;3.08;;;;;;;;;;12777473;23;20391;-87
2023/05/07 18:40:24;;;;;;;4.25;2.80;;;;;;;;;;12778296;23;20380;-86
2023/05/07 18:45:27;;;;;;;5.10;3.20;;;;;;;;;;12779584;23;20380;-86
2023/05/07 18:50:31;;;;;;;3.43;3.13;;;;;;;;;;12778117;23;21235;-86
2023/05/07 18:55:33;;;;;;;5.80;3.20;;;;;;;;;;12776292;23;20388;-86
2023/05/07 19:00:35;;;;;;;4.50;3.90;;;;;;;;;;12779521;23;20403;-87
2023/05/07 19:05:39;;;;;;;4.65;4.18;;;;;;;;;;12777626;23;20458;-86
2023/05/07 19:10:41;;;;;;;5.13;3.93;;;;;;;;;;12778069;23;21076;-86
2023/05/07 19:15:43;;;;;;;5.32;3.67;;;;;;;;;;12777134;23;20442;-87
2023/05/07 19:20:48;;;;;;;6.28;3.50;;;;;;;;;;12776621;23;20437;-85
2023/05/07 19:25:51;;;;;;;5.80;3.58;;;;;;;;;;12777769;23;20379;-86
2023/05/07 19:30:53;;;;;;;3.50;3.20;;;;;;;;;;12776427;23;20868;-86
2023/05/07 19:35:58;;;;;;;4.03;3.38;;;;;;;;;;12778008;23;20439;-86
2023/05/07 19:41:01;;;;;;;4.82;3.10;;;;;;;;;;12777525;23;20721;-87
2023/05/07 19:46:03;;;;;;;3.20;2.90;;;;;;;;;;12778695;23;20376;-87
2023/05/07 19:51:07;;;;;;;4.20;2.80;;;;;;;;;;12777248;23;20379;-86
2023/05/07 19:56:11;;;;;;;5.80;2.80;;;;;;;;;;12776985;23;20387;-87
2023/05/07 20:01:13;;;;;;;5.20;3.10;;;;;;;;;;12777222;23;20929;-87
2023/05/07 20:06:17;;;;;;;3.88;3.55;;;;;;;;;;12776489;23;20387;-86
2023/05/07 20:11:20;;;;;;;5.18;4.28;;;;;;;;;;12775599;23;20379;-87
2023/05/07 20:16:23;;;;;;;7.72;4.80;;;;;;;;;;12777178;23;20391;-87
2023/05/07 20:21:26;;;;;;;4.97;4.30;;;;;;;;;;12779290;23;20769;-85
2023/05/07 20:26:28;;;;;;;6.23;4.77;;;;;;;;;;12780804;23;20709;-87
2023/05/07 20:31:33;;;;;;;7.35;4.78;;;;;;;;;;12777946;23;20462;-86
2023/05/07 20:36:37;;;;;;;5.05;4.57;;;;;;;;;;12720471;23;20433;-85
2023/05/07 20:41:40;;;;;;;6.25;4.53;;;;;;;;;;12773437;23;20388;-86
2023/05/07 20:46:43;;;;;;;6.28;4.20;;;;;;;;;;12775690;23;20379;-86
2023/05/07 20:51:47;;;;;;;5.77;4.80;;;;;;;;;;12791200;23;20372;-85
2023/05/07 20:56:49;;;;;;;6.07;4.73;;;;;;;;;;12775400;23;20651;-85
2023/05/07 21:01:52;;;;;;;7.72;6.40;;;;;;;;;;12779303;23;20426;-86
2023/05/07 21:06:55;;;;;;;6.88;6.03;;;;;;;;;;12775937;23;20439;-86
2023/05/07 21:11:58;;;;;;;10.15;9.02;;;;;;;;;;12782935;23;20701;-86
2023/05/07 21:17:00;;;;;;;13.25;9.82;;;;;;;;;;12780259;23;20427;-86
2023/05/07 21:22:04;;;;;;;12.02;10.18;;;;;;;;;;12777116;23;20407;-86
2023/05/07 21:27:06;;;;;;;10.90;9.73;;;;;;;;;;12777290;23;20462;-86
2023/05/07 21:32:09;;;;;;;11.63;9.47;;;;;;;;;;12776632;23;20456;-87
2023/05/07 21:37:14;;;;;;;10.63;9.38;;;;;;;;;;12775719;23;20423;-86
2023/05/07 21:42:19;;;;;;;9.37;8.37;;;;;;;;;;12777863;23;20789;-87
2023/05/07 21:47:22;;;;;;;8.37;7.57;;;;;;;;;;12783173;23;20383;-87
2023/05/07 21:52:26;;;;;;;9.23;7.50;;;;;;;;;;12780023;23;20438;-86
2023/05/07 21:57:28;;;;;;;10.75;7.50;;;;;;;;;;12785047;23;20474;-86
2023/05/07 22:02:30;;;;;;;9.30;7.30;;;;;;;;;;12783505;23;20934;-87
2023/05/07 22:07:34;;;;;;;8.20;7.20;;;;;;;;;;12782612;23;20435;-87
2023/05/07 22:12:36;;;;;;;8.07;7.25;;;;;;;;;;12782980;23;20418;-86
2023/05/07 22:17:39;;;;;;;7.83;7.03;;;;;;;;;;12786102;23;20545;-87
2023/05/07 22:22:49;;;;;;;8.55;7.30;;;;;;;;;;12791473;23;20407;-86
2023/05/07 22:27:52;;;;;;;8.93;7.77;;;;;;;;;;12792502;23;20371;-87
2023/05/07 22:32:54;;;;;;;9.00;7.68;;;;;;;;;;12791385;23;20423;-87
2023/05/07 22:37:58;;;;;;;9.00;7.47;;;;;;;;;;12792398;23;20438;-86
2023/05/07 22:43:00;;;;;;;8.75;7.85;;;;;;;;;;12791254;23;20367;-87
2023/05/07 22:48:03;;;;;;;8.40;7.60;;;;;;;;;;12792136;23;20439;-87
2023/05/07 22:53:07;;;;;;;8.03;7.23;;;;;;;;;;12791957;23;20391;-87
2023/05/07 22:58:09;;;;;;;8.10;7.03;;;;;;;;;;12791736;23;20512;-86
2023/05/07 23:03:11;;;;;;;8.50;6.50;;;;;;;;;;12792756;23;20434;-87
2023/05/07 23:08:15;;;;;;;8.00;6.50;;;;;;;;;;12687527;23;20394;-87
2023/05/07 23:13:17;;;;;;;9.13;6.80;;;;;;;;;;12667353;23;20549;-85
2023/05/07 23:18:20;;;;;;;13.10;6.90;;;;;;;;;;12689018;23;20435;-87
2023/05/07 23:23:23;;;;;;;8.23;6.63;;;;;;;;;;12666474;23;20379;-87
2023/05/07 23:28:26;;;;;;;7.57;6.57;;;;;;;;;;12667516;23;20904;-86
2023/05/07 23:33:42;;;;;;;7.93;6.18;;;;;;;;;;12668213;23;20367;-87
2023/05/07 23:38:46;;;;;;;6.45;5.75;;;;;;;;;;12668983;23;20394;-87
2023/05/07 23:43:49;;;;;;;8.63;6.35;;;;;;;;;;12668406;23;20399;-87
2023/05/07 23:48:51;;;;;;;6.80;6.10;;;;;;;;;;12668866;23;20376;-87
2023/05/07 23:53:55;;;;;;;6.43;5.80;;;;;;;;;;12669062;23;20371;-87
2023/05/07 23:58:58;;;;;;;5.80;5.20;;;;;;;;;;12668459;23;20387;-86
